createdAt,value
2019-04-29T00:00:54.128Z,6.60
2019-04-29T00:01:54.116Z,6.40
2019-04-29T00:02:54.152Z,6.00
2019-04-29T00:03:54.096Z,6.80
2019-04-29T00:04:54.083Z,6.60
2019-04-29T00:05:54.080Z,6.50
2019-04-29T00:06:54.064Z,5.90
2019-04-29T00:07:54.091Z,5.60
2019-04-29T00:08:54.037Z,5.20
2019-04-29T00:09:54.026Z,5.00
2019-04-29T00:10:54.018Z,4.50
2019-04-29T00:11:54.046Z,4.20
2019-04-29T00:12:53.993Z,3.70
2019-04-29T00:13:53.983Z,3.50
2019-04-29T00:14:53.970Z,3.80
2019-04-29T00:15:53.958Z,3.50
2019-04-29T00:16:53.952Z,4.00
2019-04-29T00:17:53.980Z,3.90
2019-04-29T00:18:53.974Z,3.70
2019-04-29T00:19:53.917Z,3.40
2019-04-29T00:20:53.908Z,3.70
2019-04-29T00:21:53.933Z,3.60
2019-04-29T00:22:53.887Z,3.80
2019-04-29T00:24:03.712Z,4.10
2019-04-29T00:24:54.903Z,4.50
2019-04-29T00:25:53.850Z,4.00
2019-04-29T00:26:53.880Z,3.90
2019-04-29T00:27:53.828Z,4.20
2019-04-29T00:28:53.819Z,3.50
2019-04-29T00:29:53.805Z,3.80
2019-04-29T00:30:53.797Z,3.70
2019-04-29T00:31:53.827Z,3.70
2019-04-29T00:32:53.773Z,4.20
2019-04-29T00:33:53.802Z,4.70
2019-04-29T00:34:53.756Z,5.40
2019-04-29T00:35:53.742Z,5.60
2019-04-29T00:36:53.730Z,5.60
2019-04-29T00:37:53.761Z,6.10
2019-04-29T00:38:53.719Z,6.10
2019-04-29T00:39:53.697Z,6.20
2019-04-29T00:40:53.691Z,7.40
2019-04-29T00:41:53.722Z,7.00
2019-04-29T00:42:53.669Z,7.90
2019-04-29T00:43:53.653Z,7.60
2019-04-29T00:44:53.689Z,9.10
2019-04-29T00:45:53.676Z,8.90
2019-04-29T00:46:53.621Z,9.80
2019-04-29T00:47:53.607Z,9.60
2019-04-29T00:48:53.600Z,10.70
2019-04-29T00:49:53.584Z,11.70
2019-04-29T00:50:53.573Z,12.50
2019-04-29T00:51:53.603Z,15.00
2019-04-29T00:52:53.598Z,16.60
2019-04-29T00:53:53.541Z,15.60
2019-04-29T00:54:53.535Z,15.40
2019-04-29T00:55:53.518Z,19.60
2019-04-29T00:56:53.509Z,22.10
2019-04-29T00:57:53.496Z,24.00
2019-04-29T00:58:53.531Z,23.10
2019-04-29T00:59:53.475Z,26.80
2019-04-29T01:00:53.467Z,26.90
2019-04-29T01:01:53.451Z,26.60
2019-04-29T01:02:53.443Z,26.30
2019-04-29T01:03:53.472Z,29.30
2019-04-29T01:04:53.423Z,24.00
2019-04-29T01:05:53.408Z,24.50
2019-04-29T01:06:53.412Z,23.40
2019-04-29T01:07:53.387Z,15.10
2019-04-29T01:08:53.416Z,17.00
2019-04-29T01:09:53.362Z,19.00
2019-04-29T01:10:53.358Z,13.50
2019-04-29T01:11:53.341Z,12.50
2019-04-29T01:12:53.372Z,12.00
2019-04-29T01:13:53.368Z,12.10
2019-04-29T01:14:53.309Z,13.30
2019-04-29T01:15:53.296Z,13.00
2019-04-29T01:16:53.289Z,12.00
2019-04-29T01:17:53.274Z,10.50
2019-04-29T01:18:53.264Z,12.90
2019-04-29T01:19:53.296Z,13.00
2019-04-29T01:20:53.242Z,15.80
2019-04-29T01:21:53.231Z,13.50
2019-04-29T01:22:53.222Z,12.60
2019-04-29T01:23:53.251Z,12.80
2019-04-29T01:24:53.198Z,13.10
2019-04-29T01:25:53.187Z,14.20
2019-04-29T01:26:53.176Z,19.10
2019-04-29T01:27:53.166Z,16.10
2019-04-29T01:28:53.160Z,16.60
2019-04-29T01:29:53.187Z,18.20
2019-04-29T01:30:53.132Z,17.90
2019-04-29T01:31:53.124Z,18.30
2019-04-29T01:32:53.120Z,18.60
2019-04-29T01:33:53.165Z,19.10
2019-04-29T01:34:53.138Z,17.90
2019-04-29T01:35:53.077Z,16.40
2019-04-29T01:36:53.083Z,16.40
2019-04-29T01:37:53.095Z,16.80
2019-04-29T01:38:53.054Z,17.20
2019-04-29T01:39:53.032Z,17.80
2019-04-29T01:40:53.061Z,16.80
2019-04-29T01:41:53.050Z,14.50
2019-04-29T01:42:52.999Z,15.60
2019-04-29T01:43:53.027Z,17.00
2019-04-29T01:44:52.980Z,15.00
2019-04-29T01:45:52.977Z,17.10
2019-04-29T01:46:52.995Z,19.00
2019-04-29T01:47:52.943Z,19.10
2019-04-29T01:48:52.933Z,17.50
2019-04-29T01:49:52.922Z,20.00
2019-04-29T01:50:52.915Z,19.40
2019-04-29T01:51:52.915Z,23.10
2019-04-29T01:52:52.932Z,20.80
2019-04-29T01:53:52.877Z,20.00
2019-04-29T01:54:52.908Z,18.20
2019-04-29T01:55:52.855Z,18.90
2019-04-29T01:56:52.849Z,19.60
2019-04-29T01:57:52.834Z,17.80
2019-04-29T01:58:52.823Z,16.20
2019-04-29T01:59:52.852Z,18.60
2019-04-29T02:00:52.804Z,18.00
2019-04-29T02:01:52.801Z,17.80
2019-04-29T02:02:52.780Z,16.20
2019-04-29T02:03:52.768Z,16.70
2019-04-29T02:04:52.761Z,14.90
2019-04-29T02:05:52.811Z,13.40
2019-04-29T02:06:52.780Z,12.40
2019-04-29T02:07:52.723Z,11.40
2019-04-29T02:08:52.761Z,11.40
2019-04-29T02:09:52.712Z,10.00
2019-04-29T02:10:52.703Z,9.10
2019-04-29T02:11:52.724Z,10.10
2019-04-29T02:12:52.671Z,12.10
2019-04-29T02:13:52.658Z,11.00
2019-04-29T02:14:52.649Z,13.80
2019-04-29T02:15:52.639Z,11.50
2019-04-29T02:16:52.667Z,11.90
2019-04-29T02:17:52.614Z,12.10
2019-04-29T02:18:52.603Z,11.00
2019-04-29T02:19:52.594Z,12.00
2019-04-29T02:20:52.586Z,10.00
2019-04-29T02:21:52.576Z,9.90
2019-04-29T02:22:52.600Z,9.30
2019-04-29T02:23:52.549Z,9.20
2019-04-29T02:24:52.536Z,8.60
2019-04-29T02:25:52.527Z,10.70
2019-04-29T02:26:52.563Z,12.20
2019-04-29T02:27:52.515Z,11.50
2019-04-29T02:28:52.494Z,14.90
2019-04-29T02:29:52.490Z,15.00
2019-04-29T02:30:52.479Z,14.60
2019-04-29T02:31:52.460Z,14.50
2019-04-29T02:32:52.496Z,13.80
2019-04-29T02:33:52.438Z,13.20
2019-04-29T02:34:52.428Z,14.10
2019-04-29T02:35:52.459Z,16.60
2019-04-29T02:36:52.407Z,17.30
2019-04-29T02:37:52.398Z,19.20
2019-04-29T02:38:52.389Z,18.00
2019-04-29T02:39:52.413Z,22.20
2019-04-29T02:40:52.363Z,18.20
2019-04-29T02:41:52.355Z,22.40
2019-04-29T02:42:52.337Z,21.30
2019-04-29T02:43:52.371Z,16.90
2019-04-29T02:44:52.318Z,20.30
2019-04-29T02:45:52.304Z,20.90
2019-04-29T02:46:52.301Z,17.60
2019-04-29T02:47:52.335Z,22.80
2019-04-29T02:48:52.346Z,18.20
2019-04-29T02:49:52.259Z,23.00
2019-04-29T02:50:52.250Z,22.00
2019-04-29T02:51:52.238Z,21.90
2019-04-29T02:52:52.291Z,19.50
2019-04-29T02:53:52.217Z,18.20
2019-04-29T02:54:52.252Z,17.80
2019-04-29T02:55:52.194Z,19.50
2019-04-29T02:56:52.187Z,20.40
2019-04-29T02:57:52.172Z,19.00
2019-04-29T02:58:52.161Z,20.40
2019-04-29T02:59:52.150Z,16.50
2019-04-29T03:00:52.186Z,18.10
2019-04-29T03:01:52.505Z,19.00
2019-04-29T03:02:52.119Z,19.40
2019-04-29T03:03:52.109Z,16.70
2019-04-29T03:04:52.108Z,16.60
2019-04-29T03:05:52.085Z,16.90
2019-04-29T03:06:52.120Z,21.80
2019-04-29T03:07:52.061Z,20.60
2019-04-29T03:08:52.053Z,16.80
2019-04-29T03:09:52.048Z,21.10
2019-04-29T03:10:52.041Z,19.90
2019-04-29T03:11:52.018Z,21.80
2019-04-29T03:12:52.055Z,18.00
2019-04-29T03:13:51.996Z,23.00
2019-04-29T03:14:51.985Z,22.30
2019-04-29T03:15:51.979Z,18.50
2019-04-29T03:16:51.964Z,16.10
2019-04-29T03:17:51.950Z,19.30
2019-04-29T03:18:51.980Z,17.20
2019-04-29T03:19:51.932Z,17.20
2019-04-29T03:20:51.959Z,20.30
2019-04-29T03:21:51.912Z,16.60
2019-04-29T03:22:51.940Z,14.80
2019-04-29T03:23:51.886Z,18.60
2019-04-29T03:24:51.914Z,16.90
2019-04-29T03:25:51.860Z,14.70
2019-04-29T03:26:51.857Z,15.00
2019-04-29T03:27:51.865Z,15.30
2019-04-29T03:28:51.830Z,14.70
2019-04-29T03:29:51.819Z,13.10
2019-04-29T03:30:51.846Z,12.10
2019-04-29T03:31:51.840Z,14.60
2019-04-29T03:32:51.785Z,14.80
2019-04-29T03:33:51.773Z,14.90
2019-04-29T03:34:51.765Z,12.80
2019-04-29T03:35:51.768Z,13.20
2019-04-29T03:36:51.781Z,13.50
2019-04-29T03:37:51.738Z,12.90
2019-04-29T03:38:51.729Z,13.90
2019-04-29T03:39:51.751Z,16.00
2019-04-29T03:40:51.695Z,13.20
2019-04-29T03:41:51.685Z,14.80
2019-04-29T03:42:51.717Z,15.20
2019-04-29T03:43:51.663Z,14.40
2019-04-29T03:44:51.657Z,14.20
2019-04-29T03:45:51.640Z,12.20
2019-04-29T03:46:51.633Z,13.70
2019-04-29T03:47:51.659Z,16.50
2019-04-29T03:48:51.655Z,14.60
2019-04-29T03:49:51.595Z,13.90
2019-04-29T03:50:51.600Z,13.10
2019-04-29T03:51:51.574Z,13.30
2019-04-29T03:52:51.565Z,16.30
2019-04-29T03:53:51.552Z,14.00
2019-04-29T03:54:51.579Z,11.20
2019-04-29T03:55:51.529Z,14.40
2019-04-29T03:56:51.548Z,15.50
2019-04-29T03:57:51.506Z,16.60
2019-04-29T03:58:51.500Z,16.10
2019-04-29T03:59:51.486Z,15.60
2019-04-29T04:00:51.514Z,15.00
2019-04-29T04:01:51.463Z,15.00
2019-04-29T04:02:51.455Z,13.90
2019-04-29T04:03:51.439Z,13.00
2019-04-29T04:04:51.468Z,14.20
2019-04-29T04:05:51.461Z,15.00
2019-04-29T04:06:51.446Z,15.20
2019-04-29T04:07:51.398Z,18.50
2019-04-29T04:09:05.524Z,17.90
2019-04-29T04:09:52.375Z,15.00
2019-04-29T04:10:51.362Z,16.60
2019-04-29T04:11:51.394Z,14.60
2019-04-29T04:12:51.350Z,18.00
2019-04-29T04:13:51.364Z,17.50
2019-04-29T04:14:51.318Z,15.70
2019-04-29T04:15:51.306Z,13.80
2019-04-29T04:16:51.338Z,17.40
2019-04-29T04:17:51.291Z,15.00
2019-04-29T04:18:51.275Z,13.40
2019-04-29T04:19:51.263Z,15.40
2019-04-29T04:20:51.297Z,16.50
2019-04-29T04:21:51.240Z,20.00
2019-04-29T04:22:51.231Z,16.40
2019-04-29T04:23:51.218Z,17.00
2019-04-29T04:24:51.207Z,15.80
2019-04-29T04:25:51.197Z,13.80
2019-04-29T04:26:51.229Z,19.00
2019-04-29T04:27:51.218Z,15.90
2019-04-29T04:28:51.206Z,16.40
2019-04-29T04:29:51.156Z,15.90
2019-04-29T04:30:51.148Z,15.10
2019-04-29T04:31:51.132Z,14.80
2019-04-29T04:32:51.160Z,16.50
2019-04-29T04:33:51.107Z,18.20
2019-04-29T04:34:51.207Z,18.20
2019-04-29T04:35:51.085Z,17.30
2019-04-29T04:36:51.075Z,15.30
2019-04-29T04:37:51.060Z,15.80
2019-04-29T04:38:51.051Z,19.90
2019-04-29T04:39:51.039Z,17.30
2019-04-29T04:40:51.071Z,24.30
2019-04-29T04:41:51.058Z,16.60
2019-04-29T04:42:51.032Z,19.30
2019-04-29T04:43:51.070Z,19.00
2019-04-29T04:44:50.988Z,17.70
2019-04-29T04:45:50.975Z,21.80
2019-04-29T04:46:50.964Z,21.80
2019-04-29T04:47:50.995Z,18.00
2019-04-29T04:48:50.983Z,21.70
2019-04-29T04:49:50.954Z,20.10
2019-04-29T04:50:50.930Z,21.10
2019-04-29T04:51:51.025Z,19.70
2019-04-29T04:52:50.944Z,18.90
2019-04-29T04:53:50.896Z,17.50
2019-04-29T04:54:50.895Z,13.80
2019-04-29T04:55:50.867Z,17.10
2019-04-29T04:56:50.895Z,16.40
2019-04-29T04:57:50.840Z,18.40
2019-04-29T04:58:50.868Z,19.50
2019-04-29T04:59:50.821Z,16.70
2019-04-29T05:00:50.805Z,12.30
2019-04-29T05:01:50.808Z,16.00
2019-04-29T05:02:50.876Z,13.70
2019-04-29T05:03:50.828Z,17.10
2019-04-29T05:04:50.814Z,17.20
2019-04-29T05:05:50.752Z,17.50
2019-04-29T05:06:50.767Z,16.60
2019-04-29T05:07:50.743Z,13.90
2019-04-29T05:08:50.723Z,15.90
2019-04-29T05:09:50.722Z,18.80
2019-04-29T05:10:51.507Z,13.20
2019-04-29T05:11:50.747Z,15.70
2019-04-29T05:12:50.679Z,19.20
2019-04-29T05:13:50.683Z,17.10
2019-04-29T05:14:50.653Z,16.60
2019-04-29T05:15:50.668Z,17.40
2019-04-29T05:16:50.639Z,18.40
2019-04-29T05:17:53.169Z,18.10
2019-04-29T05:18:50.612Z,16.90
2019-04-29T05:19:50.616Z,17.20
2019-04-29T05:20:50.631Z,14.50
2019-04-29T05:21:50.589Z,13.10
2019-04-29T05:22:50.566Z,12.90
2019-04-29T05:23:50.559Z,16.50
2019-04-29T05:24:50.552Z,14.50
2019-04-29T05:25:50.540Z,15.40
2019-04-29T05:26:50.563Z,14.20
2019-04-29T05:27:50.588Z,19.20
2019-04-29T05:28:50.499Z,15.20
2019-04-29T05:29:50.519Z,16.80
2019-04-29T05:30:50.486Z,13.70
2019-04-29T05:31:50.468Z,12.10
2019-04-29T05:32:50.514Z,11.80
2019-04-29T05:33:50.450Z,14.90
2019-04-29T05:34:50.444Z,13.20
2019-04-29T05:35:50.454Z,12.30
2019-04-29T05:36:50.414Z,13.20
2019-04-29T05:37:50.461Z,10.50
2019-04-29T05:38:50.412Z,10.90
2019-04-29T05:39:50.404Z,13.40
2019-04-29T05:40:50.374Z,10.20
2019-04-29T05:41:50.377Z,10.30
2019-04-29T05:42:52.641Z,10.90
2019-04-29T05:43:50.349Z,11.30
2019-04-29T05:44:50.370Z,10.10
2019-04-29T05:45:50.326Z,11.70
2019-04-29T05:46:50.351Z,15.30
2019-04-29T05:47:52.500Z,12.00
2019-04-29T05:48:51.336Z,10.20
2019-04-29T05:49:50.323Z,12.00
2019-04-29T05:50:52.181Z,11.90
2019-04-29T05:51:50.317Z,13.00
2019-04-29T05:52:50.332Z,12.90
2019-04-29T05:53:54.898Z,11.80
2019-04-29T05:54:51.287Z,10.40
2019-04-29T05:55:52.515Z,12.40
2019-04-29T05:56:50.212Z,12.40
2019-04-29T05:57:50.231Z,10.00
2019-04-29T05:58:50.203Z,11.00
2019-04-29T05:59:50.163Z,10.90
2019-04-29T06:00:50.168Z,10.70
2019-04-29T06:01:50.139Z,10.00
2019-04-29T06:02:50.164Z,10.60
2019-04-29T06:03:50.178Z,9.60
2019-04-29T06:04:52.342Z,9.70
2019-04-29T06:05:50.125Z,7.90
2019-04-29T06:06:50.127Z,8.90
2019-04-29T06:07:51.733Z,9.10
2019-04-29T06:08:50.093Z,8.50
2019-04-29T06:09:50.150Z,9.10
2019-04-29T06:10:50.044Z,9.70
2019-04-29T06:11:50.024Z,8.70
2019-04-29T06:12:50.099Z,8.30
2019-04-29T06:13:50.009Z,8.00
2019-04-29T06:14:49.999Z,7.90
2019-04-29T06:15:50.023Z,8.00
2019-04-29T06:16:52.710Z,9.10
2019-04-29T06:17:50.048Z,8.60
2019-04-29T06:18:50.018Z,8.40
2019-04-29T06:19:49.954Z,8.90
2019-04-29T06:20:49.946Z,8.00
2019-04-29T06:21:49.928Z,8.50
2019-04-29T06:22:49.906Z,8.80
2019-04-29T06:23:49.912Z,8.60
2019-04-29T06:24:49.951Z,8.30
2019-04-29T06:25:49.923Z,8.30
2019-04-29T06:26:49.872Z,8.20
2019-04-29T06:27:49.871Z,7.90
2019-04-29T06:28:49.874Z,8.20
2019-04-29T06:29:49.890Z,8.70
2019-04-29T06:30:51.606Z,9.20
2019-04-29T06:31:49.884Z,9.40
2019-04-29T06:32:49.796Z,9.60
2019-04-29T06:33:49.787Z,10.20
2019-04-29T06:34:49.803Z,10.70
2019-04-29T06:35:49.766Z,11.70
2019-04-29T06:36:49.976Z,11.80
2019-04-29T06:37:49.798Z,12.10
2019-04-29T06:38:49.744Z,11.30
2019-04-29T06:39:49.943Z,11.30
2019-04-29T06:40:49.731Z,12.90
2019-04-29T06:41:49.774Z,12.10
2019-04-29T06:42:53.454Z,11.60
2019-04-29T06:43:54.169Z,11.90
2019-04-29T06:44:50.800Z,12.10
2019-04-29T06:45:49.681Z,10.80
2019-04-29T06:46:50.221Z,11.20
2019-04-29T06:47:49.697Z,11.10
2019-04-29T06:48:49.693Z,9.20
2019-04-29T06:49:49.626Z,8.00
2019-04-29T06:50:49.906Z,8.20
2019-04-29T06:51:49.681Z,7.90
2019-04-29T06:52:49.605Z,7.60
2019-04-29T06:53:49.630Z,7.20
2019-04-29T06:54:49.606Z,6.30
2019-04-29T06:55:49.614Z,7.10
2019-04-29T06:56:49.542Z,8.60
2019-04-29T06:57:49.516Z,10.40
2019-04-29T06:58:49.549Z,11.10
2019-04-29T06:59:49.596Z,10.20
2019-04-29T07:00:51.087Z,10.80
2019-04-29T07:01:49.485Z,10.60
2019-04-29T07:02:49.986Z,10.80
2019-04-29T07:03:49.497Z,9.30
2019-04-29T07:04:49.468Z,9.60
2019-04-29T07:05:51.549Z,10.60
2019-04-29T07:06:57.284Z,9.90
2019-04-29T07:07:50.420Z,9.10
2019-04-29T07:08:49.405Z,8.00
2019-04-29T07:09:49.414Z,7.90
2019-04-29T07:10:49.434Z,8.90
2019-04-29T07:11:49.363Z,9.20
2019-04-29T07:12:49.355Z,10.40
2019-04-29T07:13:49.468Z,10.50
2019-04-29T07:14:49.332Z,9.00
2019-04-29T07:15:49.329Z,9.30
2019-04-29T07:16:49.364Z,9.30
2019-04-29T07:17:49.312Z,9.90
2019-04-29T07:18:53.416Z,9.50
2019-04-29T07:19:49.276Z,9.20
2019-04-29T07:20:49.288Z,9.80
2019-04-29T07:21:53.242Z,10.00
2019-04-29T07:22:50.292Z,9.80
2019-04-29T07:23:49.287Z,8.40
2019-04-29T07:24:49.223Z,8.70
2019-04-29T07:25:49.213Z,8.40
2019-04-29T07:26:49.208Z,7.90
2019-04-29T07:27:49.573Z,8.30
2019-04-29T07:28:53.174Z,7.40
2019-04-29T07:29:49.209Z,7.40
2019-04-29T07:31:01.174Z,7.60
2019-04-29T07:31:50.150Z,7.10
2019-04-29T07:32:49.137Z,7.60
2019-04-29T07:33:49.134Z,7.20
2019-04-29T07:34:49.121Z,7.20
2019-04-29T07:35:49.650Z,7.70
2019-04-29T07:36:49.226Z,7.30
2019-04-29T07:37:49.474Z,7.50
2019-04-29T07:38:51.666Z,7.00
2019-04-29T07:39:51.008Z,7.30
2019-04-29T07:40:50.041Z,7.80
2019-04-29T07:41:49.494Z,7.60
2019-04-29T07:42:49.521Z,7.50
2019-04-29T07:43:49.043Z,8.30
2019-04-29T07:44:52.812Z,8.40
2019-04-29T07:45:49.011Z,7.90
2019-04-29T07:46:57.075Z,8.30
2019-04-29T07:47:56.734Z,8.70
2019-04-29T07:49:00.688Z,7.90
2019-04-29T07:49:51.492Z,7.50
2019-04-29T07:50:49.036Z,8.00
2019-04-29T07:51:49.043Z,8.30
2019-04-29T07:52:49.969Z,8.30
2019-04-29T07:53:48.971Z,7.90
2019-04-29T07:54:54.936Z,8.10
2019-04-29T07:55:49.891Z,7.80
2019-04-29T07:56:48.878Z,8.20
2019-04-29T07:57:52.191Z,8.30
2019-04-29T07:58:48.845Z,8.90
2019-04-29T07:59:48.833Z,8.00
2019-04-29T08:00:49.961Z,8.40
2019-04-29T08:01:48.875Z,8.10
2019-04-29T08:02:48.895Z,8.50
2019-04-29T08:03:48.844Z,9.90
2019-04-29T08:04:48.917Z,9.40
2019-04-29T08:05:48.773Z,9.20
2019-04-29T08:06:48.840Z,9.70
2019-04-29T08:07:49.025Z,8.50
2019-04-29T08:08:55.053Z,9.40
2019-04-29T08:09:49.768Z,8.90
2019-04-29T08:10:56.190Z,7.70
2019-04-29T08:11:49.872Z,8.20
2019-04-29T08:12:48.694Z,9.60
2019-04-29T08:13:48.756Z,10.30
2019-04-29T08:14:48.714Z,11.00
2019-04-29T08:15:48.659Z,11.40
2019-04-29T08:16:48.680Z,11.20
2019-04-29T08:17:51.346Z,11.50
2019-04-29T08:18:49.611Z,11.30
2019-04-29T08:19:48.634Z,10.70
2019-04-29T08:20:48.647Z,10.90
2019-04-29T08:21:49.721Z,11.20
2019-04-29T08:22:48.627Z,11.50
2019-04-29T08:23:48.720Z,10.60
2019-04-29T08:24:50.425Z,11.30
2019-04-29T08:25:50.930Z,12.50
2019-04-29T08:26:48.596Z,12.30
2019-04-29T08:27:48.698Z,12.20
2019-04-29T08:28:48.521Z,12.90
2019-04-29T08:29:48.553Z,13.90
2019-04-29T08:30:48.527Z,12.00
2019-04-29T08:31:52.041Z,12.60
2019-04-29T08:32:50.728Z,12.00
2019-04-29T08:33:48.620Z,12.20
2019-04-29T08:34:48.450Z,12.00
2019-04-29T08:35:48.452Z,10.60
2019-04-29T08:36:48.500Z,11.20
2019-04-29T08:37:48.420Z,11.30
2019-04-29T08:38:48.409Z,10.40
2019-04-29T08:40:03.497Z,10.50
2019-04-29T08:40:50.502Z,9.70
2019-04-29T08:41:48.410Z,9.90
2019-04-29T08:42:48.495Z,9.20
2019-04-29T08:43:48.363Z,9.80
2019-04-29T08:44:48.359Z,9.70
2019-04-29T08:45:48.350Z,9.80
2019-04-29T08:46:51.741Z,10.30
2019-04-29T08:47:48.309Z,10.30
2019-04-29T08:48:48.339Z,10.10
2019-04-29T08:49:48.282Z,10.50
2019-04-29T08:50:48.268Z,11.40
2019-04-29T08:51:48.314Z,9.10
2019-04-29T08:52:48.377Z,9.80
2019-04-29T08:53:48.371Z,9.70
2019-04-29T08:54:50.870Z,10.20
2019-04-29T08:55:49.267Z,11.00
2019-04-29T08:57:02.327Z,10.80
2019-04-29T08:57:50.169Z,10.70
2019-04-29T08:58:50.994Z,11.10
2019-04-29T08:59:48.568Z,11.00
2019-04-29T09:00:57.674Z,10.70
2019-04-29T09:01:48.274Z,10.90
2019-04-29T09:02:49.376Z,9.70
2019-04-29T09:03:48.773Z,8.70
2019-04-29T09:04:53.727Z,9.00
2019-04-29T09:06:03.962Z,8.80
2019-04-29T09:06:49.307Z,8.10
2019-04-29T09:07:48.165Z,7.80
2019-04-29T09:08:56.210Z,8.10
2019-04-29T09:09:49.119Z,8.60
2019-04-29T09:10:48.150Z,8.30
2019-04-29T09:11:49.422Z,8.30
2019-04-29T09:12:48.689Z,8.30
2019-04-29T09:13:48.035Z,8.60
2019-04-29T09:14:48.105Z,9.20
2019-04-29T09:15:48.074Z,8.90
2019-04-29T09:16:48.209Z,8.80
2019-04-29T09:17:48.010Z,8.40
2019-04-29T09:18:48.099Z,8.10
2019-04-29T09:19:49.625Z,8.80
2019-04-29T09:20:47.951Z,8.80
2019-04-29T09:21:49.399Z,8.60
2019-04-29T09:22:47.925Z,8.50
2019-04-29T09:23:47.953Z,9.40
2019-04-29T09:24:49.429Z,9.30
2019-04-29T09:26:01.715Z,9.10
2019-04-29T09:26:48.932Z,9.30
2019-04-29T09:27:47.944Z,7.80
2019-04-29T09:28:49.709Z,6.90
2019-04-29T09:29:58.904Z,6.60
2019-04-29T09:30:48.928Z,6.30
2019-04-29T09:31:47.820Z,5.90
2019-04-29T09:32:47.845Z,5.90
2019-04-29T09:33:49.067Z,5.90
2019-04-29T09:34:49.043Z,6.10
2019-04-29T09:35:59.281Z,6.50
2019-04-29T09:36:49.803Z,7.40
2019-04-29T09:37:49.393Z,6.60
2019-04-29T09:38:50.255Z,6.90
2019-04-29T09:39:47.811Z,6.80
2019-04-29T09:40:48.269Z,7.10
2019-04-29T09:41:47.697Z,8.40
2019-04-29T09:42:50.175Z,7.80
2019-04-29T09:43:47.746Z,7.50
2019-04-29T09:44:47.681Z,7.70
2019-04-29T09:45:47.675Z,8.60
2019-04-29T09:46:47.642Z,9.50
2019-04-29T09:47:47.714Z,9.30
2019-04-29T09:48:47.657Z,9.20
2019-04-29T09:49:47.635Z,9.20
2019-04-29T09:50:47.591Z,9.30
2019-04-29T09:51:47.586Z,9.30
2019-04-29T09:52:48.568Z,8.90
2019-04-29T09:53:47.580Z,8.90
2019-04-29T09:54:47.587Z,8.60
2019-04-29T09:55:47.544Z,8.80
2019-04-29T09:56:48.361Z,8.10
2019-04-29T09:57:47.528Z,8.00
2019-04-29T09:58:47.761Z,7.70
2019-04-29T09:59:47.577Z,7.10
2019-04-29T10:00:47.525Z,7.60
2019-04-29T10:01:50.561Z,7.30
2019-04-29T10:02:48.704Z,7.10
2019-04-29T10:03:47.472Z,7.40
2019-04-29T10:04:56.339Z,7.10
2019-04-29T10:05:48.431Z,6.50
2019-04-29T10:06:47.417Z,6.90
2019-04-29T10:07:47.414Z,7.10
2019-04-29T10:08:47.450Z,7.50
2019-04-29T10:09:57.112Z,6.80
2019-04-29T10:10:48.627Z,6.80
2019-04-29T10:11:47.677Z,6.40
2019-04-29T10:12:47.338Z,7.30
2019-04-29T10:13:47.326Z,7.80
2019-04-29T10:14:47.369Z,6.60
2019-04-29T10:15:47.329Z,6.50
2019-04-29T10:16:49.872Z,6.70
2019-04-29T10:17:50.804Z,6.50
2019-04-29T10:18:48.268Z,6.50
2019-04-29T10:19:47.299Z,7.10
2019-04-29T10:20:47.322Z,7.40
2019-04-29T10:21:47.255Z,6.80
2019-04-29T10:22:50.203Z,6.70
2019-04-29T10:23:48.214Z,6.60
2019-04-29T10:24:47.224Z,6.10
2019-04-29T10:25:47.248Z,6.60
2019-04-29T10:26:47.352Z,6.00
2019-04-29T10:27:47.232Z,6.10
2019-04-29T10:28:47.154Z,7.10
2019-04-29T10:29:50.775Z,6.40
2019-04-29T10:30:48.166Z,6.30
2019-04-29T10:31:47.190Z,6.90
2019-04-29T10:32:47.223Z,6.20
2019-04-29T10:33:50.224Z,6.20
2019-04-29T10:34:48.214Z,10.20
2019-04-29T10:35:47.156Z,9.10
2019-04-29T10:36:47.064Z,8.60
2019-04-29T10:37:47.102Z,7.20
2019-04-29T10:38:47.167Z,7.70
2019-04-29T10:39:47.148Z,6.50
2019-04-29T10:40:47.093Z,5.60
2019-04-29T10:41:47.007Z,6.00
2019-04-29T10:42:47.046Z,6.50
2019-04-29T10:43:49.475Z,6.80
2019-04-29T10:44:48.028Z,6.60
2019-04-29T10:45:46.972Z,5.90
2019-04-29T10:46:46.997Z,6.10
2019-04-29T10:47:46.941Z,5.70
2019-04-29T10:48:46.946Z,6.00
2019-04-29T10:49:49.641Z,5.70
2019-04-29T10:50:51.597Z,5.40
2019-04-29T10:51:47.955Z,5.70
2019-04-29T10:52:46.901Z,6.10
2019-04-29T10:53:51.034Z,6.20
2019-04-29T10:54:51.247Z,6.30
2019-04-29T10:55:48.789Z,6.30
2019-04-29T10:56:47.241Z,6.90
2019-04-29T10:57:49.727Z,6.00
2019-04-29T10:58:46.822Z,5.80
2019-04-29T10:59:50.027Z,5.70
2019-04-29T11:00:46.815Z,5.80
2019-04-29T11:01:54.634Z,5.60
2019-04-29T11:02:49.401Z,5.20
2019-04-29T11:03:46.771Z,5.40
2019-04-29T11:04:46.760Z,5.60
2019-04-29T11:06:00.106Z,6.00
2019-04-29T11:06:47.804Z,6.80
2019-04-29T11:07:46.816Z,6.60
2019-04-29T11:08:46.709Z,7.00
2019-04-29T11:09:50.829Z,7.30
2019-04-29T11:10:47.693Z,7.80
2019-04-29T11:11:46.714Z,7.50
2019-04-29T11:12:46.680Z,7.40
2019-04-29T11:13:50.333Z,7.70
2019-04-29T11:14:46.664Z,8.10
2019-04-29T11:15:49.431Z,8.40
2019-04-29T11:16:47.114Z,8.60
2019-04-29T11:17:46.694Z,8.60
2019-04-29T11:18:46.594Z,8.50
2019-04-29T11:19:46.647Z,8.10
2019-04-29T11:20:48.833Z,8.30
2019-04-29T11:21:47.623Z,7.60
2019-04-29T11:22:46.754Z,7.70
2019-04-29T11:23:50.558Z,7.60
2019-04-29T11:24:47.656Z,7.30
2019-04-29T11:25:50.988Z,7.10
2019-04-29T11:26:46.631Z,7.20
2019-04-29T11:27:46.649Z,7.10
2019-04-29T11:28:46.977Z,6.50
2019-04-29T11:29:46.543Z,6.80
2019-04-29T11:30:49.446Z,6.60
2019-04-29T11:31:49.104Z,6.60
2019-04-29T11:32:48.188Z,6.60
2019-04-29T11:33:46.475Z,7.00
2019-04-29T11:34:48.340Z,7.20
2019-04-29T11:35:47.444Z,7.20
2019-04-29T11:36:46.436Z,6.30
2019-04-29T11:37:50.070Z,6.40
2019-04-29T11:38:47.447Z,6.60
2019-04-29T11:39:50.216Z,6.70
2019-04-29T11:40:47.349Z,6.20
2019-04-29T11:41:47.287Z,6.00
2019-04-29T11:42:46.353Z,6.40
2019-04-29T11:43:50.463Z,7.00
2019-04-29T11:44:46.351Z,6.70
2019-04-29T11:45:46.444Z,6.60
2019-04-29T11:46:48.980Z,7.00
2019-04-29T11:47:46.432Z,6.70
2019-04-29T11:48:46.362Z,6.30
2019-04-29T11:49:47.917Z,6.40
2019-04-29T11:50:50.163Z,6.60
2019-04-29T11:52:07.919Z,6.00
2019-04-29T11:52:47.458Z,6.80
2019-04-29T11:53:46.287Z,6.30
2019-04-29T11:54:46.208Z,6.70
2019-04-29T11:55:46.516Z,7.70
2019-04-29T11:56:46.220Z,7.80
2019-04-29T11:57:46.155Z,8.30
2019-04-29T11:58:46.156Z,9.80
2019-04-29T11:59:46.220Z,8.90
2019-04-29T12:00:46.959Z,10.20
2019-04-29T12:01:50.925Z,10.20
2019-04-29T12:02:47.107Z,10.40
2019-04-29T12:03:46.103Z,11.00
2019-04-29T12:04:46.102Z,10.20
2019-04-29T12:05:46.336Z,9.60
2019-04-29T12:06:46.067Z,9.40
2019-04-29T12:07:46.055Z,9.30
2019-04-29T12:08:48.126Z,9.50
2019-04-29T12:09:47.024Z,7.50
2019-04-29T12:10:51.805Z,6.90
2019-04-29T12:11:47.002Z,7.70
2019-04-29T12:12:47.701Z,7.20
2019-04-29T12:13:45.998Z,7.00
2019-04-29T12:14:45.993Z,7.80
2019-04-29T12:15:49.231Z,7.80
2019-04-29T12:16:46.001Z,7.30
2019-04-29T12:17:45.963Z,7.80
2019-04-29T12:18:45.934Z,7.90
2019-04-29T12:19:45.964Z,8.20
2019-04-29T12:20:45.910Z,8.00
2019-04-29T12:21:45.906Z,7.20
2019-04-29T12:22:48.709Z,7.80
2019-04-29T12:23:47.669Z,7.70
2019-04-29T12:24:46.860Z,7.50
2019-04-29T12:25:45.840Z,7.00
2019-04-29T12:26:45.898Z,7.20
2019-04-29T12:27:45.847Z,7.10
2019-04-29T12:28:45.877Z,7.80
2019-04-29T12:29:48.791Z,7.40
2019-04-29T12:30:46.789Z,7.80
2019-04-29T12:31:49.264Z,7.50
2019-04-29T12:32:46.881Z,9.00
2019-04-29T12:33:45.758Z,8.20
2019-04-29T12:34:45.754Z,7.50
2019-04-29T12:35:51.893Z,8.10
2019-04-29T12:36:55.971Z,8.00
2019-04-29T12:37:46.757Z,7.60
2019-04-29T12:38:49.663Z,7.80
2019-04-29T12:39:46.716Z,8.20
2019-04-29T12:40:50.216Z,7.50
2019-04-29T12:41:49.143Z,7.70
2019-04-29T12:42:45.838Z,8.20
2019-04-29T12:43:48.683Z,7.10
2019-04-29T12:44:46.832Z,7.70
2019-04-29T12:45:45.743Z,7.30
2019-04-29T12:46:45.612Z,6.90
2019-04-29T12:47:45.637Z,7.40
2019-04-29T12:48:45.582Z,7.30
2019-04-29T12:49:46.361Z,6.90
2019-04-29T12:50:45.611Z,7.70
2019-04-29T12:51:45.562Z,7.60
2019-04-29T12:52:45.583Z,7.10
2019-04-29T12:53:45.534Z,7.10
2019-04-29T12:54:46.073Z,6.60
2019-04-29T12:55:49.473Z,7.00
2019-04-29T12:56:48.057Z,7.60
2019-04-29T12:57:45.483Z,7.20
2019-04-29T12:58:50.442Z,7.80
2019-04-29T12:59:46.482Z,7.70
2019-04-29T13:00:48.244Z,8.20
2019-04-29T13:01:51.300Z,7.30
2019-04-29T13:02:46.473Z,8.20
2019-04-29T13:03:45.443Z,9.00
2019-04-29T13:04:49.766Z,8.50
2019-04-29T13:05:57.600Z,7.40